Time;durP1;ratioP1;P1;durP2;ratioP2;P2;SDS_P1;SDS_P2;PMS_P1;PMS_P2;Temp;Humidity;BMP_temperature;BMP_pressure;BME280_temperature;BME280_humidity;BME280_pressure;Samples;Min_cycle;Max_cycle;Signal;HPM_P1;HPM_P2
2023/09/03 00:00:31;;;;;;;0.15;0.15;;;;;;;;;;6220350;23;20016;-79
2023/09/03 00:02:57;;;;;;;0.20;0.20;;;;;;;;;;6194739;23;20048;-80
2023/09/03 00:05:23;;;;;;;0.10;0.10;;;;;;;;;;6220202;23;20012;-79
2023/09/03 00:07:52;;;;;;;0.30;0.30;;;;;;;;;;6247197;23;20062;-80
2023/09/03 00:10:18;;;;;;;0.38;0.38;;;;;;;;;;6220516;23;20020;-79
2023/09/03 00:12:44;;;;;;;0.30;0.30;;;;;;;;;;6219295;23;20080;-79
2023/09/03 00:15:10;;;;;;;0.20;0.20;;;;;;;;;;6219874;23;20055;-79
2023/09/03 00:17:36;;;;;;;0.10;0.10;;;;;;;;;;6194556;23;20027;-79
2023/09/03 00:20:02;;;;;;;0.30;0.30;;;;;;;;;;6219336;23;20012;-79
2023/09/03 00:22:28;;;;;;;0.20;0.20;;;;;;;;;;6219311;23;20078;-79
2023/09/03 00:24:55;;;;;;;0.20;0.20;;;;;;;;;;6219448;23;20020;-79
2023/09/03 00:27:24;;;;;;;0.30;0.30;;;;;;;;;;6194471;23;20447;-79
2023/09/03 00:29:50;;;;;;;0.20;0.20;;;;;;;;;;6219828;23;20016;-79
2023/09/03 00:32:16;;;;;;;0.30;0.30;;;;;;;;;;6218964;23;20016;-79
2023/09/03 00:34:42;;;;;;;0.17;0.17;;;;;;;;;;6220515;23;20098;-80
2023/09/03 00:37:08;;;;;;;0.20;0.20;;;;;;;;;;6196586;23;20101;-79
2023/09/03 00:39:34;;;;;;;0.20;0.20;;;;;;;;;;6248751;23;20448;-80
2023/09/03 00:42:00;;;;;;;0.30;0.30;;;;;;;;;;6221429;23;20024;-79
2023/09/03 00:44:26;;;;;;;0.20;0.20;;;;;;;;;;6221371;23;20008;-79
2023/09/03 00:46:52;;;;;;;0.30;0.30;;;;;;;;;;6221627;23;20023;-79
2023/09/03 00:49:21;;;;;;;0.30;0.30;;;;;;;;;;6221429;23;20466;-80
2023/09/03 00:51:47;;;;;;;0.20;0.20;;;;;;;;;;6221335;23;20027;-80
2023/09/03 00:54:13;;;;;;;0.30;0.30;;;;;;;;;;6248056;23;20343;-79
2023/09/03 00:56:40;;;;;;;0.35;0.35;;;;;;;;;;6196195;23;20435;-79
2023/09/03 00:59:06;;;;;;;0.20;0.20;;;;;;;;;;6196286;23;20044;-80
2023/09/03 01:01:32;;;;;;;0.30;0.30;;;;;;;;;;6221124;23;20020;-79
2023/09/03 01:03:58;;;;;;;0.20;0.20;;;;;;;;;;6221492;23;20043;-80
2023/09/03 01:06:26;;;;;;;0.20;0.20;;;;;;;;;;6221221;23;20012;-80
2023/09/03 01:08:52;;;;;;;0.30;0.30;;;;;;;;;;6195960;23;20443;-80
2023/09/03 01:11:28;;;;;;;0.35;0.35;;;;;;;;;;6221376;23;20067;-80
2023/09/03 01:14:06;;;;;;;0.25;0.25;;;;;;;;;;6196197;23;20024;-79
2023/09/03 01:16:40;;;;;;;0.20;0.20;;;;;;;;;;6221424;23;20016;-78
2023/09/03 01:19:13;;;;;;;0.20;0.20;;;;;;;;;;6196400;23;20016;-80
2023/09/03 01:21:54;;;;;;;0.30;0.30;;;;;;;;;;6221267;23;20020;-80
2023/09/03 01:24:30;;;;;;;0.20;0.20;;;;;;;;;;6248097;23;20054;-80
2023/09/03 01:26:56;;;;;;;0.20;0.20;;;;;;;;;;6221461;23;20012;-79
2023/09/03 01:29:23;;;;;;;0.28;0.28;;;;;;;;;;6221358;23;20012;-80
2023/09/03 01:31:50;;;;;;;0.30;0.30;;;;;;;;;;6196158;23;20027;-80
2023/09/03 01:34:16;;;;;;;0.20;0.20;;;;;;;;;;6221297;23;20386;-80
2023/09/03 01:36:43;;;;;;;0.30;0.30;;;;;;;;;;6220588;23;20027;-79
2023/09/03 01:39:09;;;;;;;0.28;0.28;;;;;;;;;;6220752;23;20382;-79
2023/09/03 01:41:36;;;;;;;0.20;0.20;;;;;;;;;;6220622;23;20016;-80
2023/09/03 01:44:02;;;;;;;0.10;0.10;;;;;;;;;;6221862;23;20091;-80
2023/09/03 01:46:40;;;;;;;0.50;0.50;;;;;;;;;;6220604;23;20016;-80
2023/09/03 01:49:20;;;;;;;0.22;0.22;;;;;;;;;;6223208;23;20017;-80
2023/09/03 01:51:54;;;;;;;0.30;0.30;;;;;;;;;;6221537;23;20016;-79
2023/09/03 01:54:20;;;;;;;0.22;0.22;;;;;;;;;;6197867;23;20020;-80
2023/09/03 01:56:51;;;;;;;0.30;0.30;;;;;;;;;;6250034;23;20077;-80
2023/09/03 01:59:20;;;;;;;0.20;0.20;;;;;;;;;;6223802;23;20016;-79
2023/09/03 02:01:47;;;;;;;0.30;0.30;;;;;;;;;;6223368;23;20020;-80
2023/09/03 02:04:14;;;;;;;0.28;0.28;;;;;;;;;;6198993;23;20016;-80
2023/09/03 02:06:44;;;;;;;0.20;0.20;;;;;;;;;;6224159;23;20050;-80
2023/09/03 02:09:10;;;;;;;0.30;0.30;;;;;;;;;;6251486;23;20027;-80
2023/09/03 02:11:36;;;;;;;0.30;0.30;;;;;;;;;;6250584;23;20324;-80
2023/09/03 02:14:02;;;;;;;0.30;0.30;;;;;;;;;;6224104;23;20020;-80
2023/09/03 02:16:28;;;;;;;0.30;0.30;;;;;;;;;;6250533;23;20313;-80
2023/09/03 02:18:54;;;;;;;0.30;0.30;;;;;;;;;;6223708;23;20027;-80
2023/09/03 02:21:20;;;;;;;0.30;0.30;;;;;;;;;;6222578;23;20355;-80
2023/09/03 02:23:47;;;;;;;0.30;0.30;;;;;;;;;;6223893;23;20055;-80
2023/09/03 02:26:13;;;;;;;0.30;0.30;;;;;;;;;;6250554;23;20085;-81
2023/09/03 02:28:40;;;;;;;0.30;0.30;;;;;;;;;;6223010;23;20064;-80
2023/09/03 02:31:09;;;;;;;0.30;0.30;;;;;;;;;;6197784;23;20070;-80
2023/09/03 02:33:35;;;;;;;0.20;0.20;;;;;;;;;;6196927;23;20039;-80
2023/09/03 02:36:02;;;;;;;0.30;0.30;;;;;;;;;;6197125;23;20048;-79
2023/09/03 02:38:28;;;;;;;0.30;0.30;;;;;;;;;;6195797;23;20024;-80
2023/09/03 02:40:54;;;;;;;0.25;0.25;;;;;;;;;;6221823;23;20032;-80
2023/09/03 02:43:20;;;;;;;0.20;0.20;;;;;;;;;;6221891;23;20023;-80
2023/09/03 02:45:46;;;;;;;0.40;0.40;;;;;;;;;;6196911;23;20048;-80
2023/09/03 02:48:12;;;;;;;0.20;0.20;;;;;;;;;;6221907;23;20023;-80
2023/09/03 02:50:38;;;;;;;0.30;0.30;;;;;;;;;;6222839;23;20427;-81
2023/09/03 02:53:05;;;;;;;0.20;0.20;;;;;;;;;;6221473;23;20048;-80
2023/09/03 02:55:31;;;;;;;0.30;0.30;;;;;;;;;;6196217;23;20023;-80
2023/09/03 02:57:57;;;;;;;0.20;0.20;;;;;;;;;;6196727;23;20023;-80
2023/09/03 03:00:23;;;;;;;0.20;0.20;;;;;;;;;;6221273;23;20023;-80
2023/09/03 03:02:52;;;;;;;0.30;0.30;;;;;;;;;;6196387;23;20016;-80
2023/09/03 03:05:18;;;;;;;0.20;0.20;;;;;;;;;;6196577;23;20020;-80
2023/09/03 03:07:45;;;;;;;0.22;0.22;;;;;;;;;;6248403;23;20012;-80
2023/09/03 03:10:11;;;;;;;0.30;0.30;;;;;;;;;;6222233;23;20335;-80
2023/09/03 03:12:39;;;;;;;0.30;0.30;;;;;;;;;;6197194;23;20020;-80
2023/09/03 03:15:05;;;;;;;0.22;0.22;;;;;;;;;;6222787;23;20034;-80
2023/09/03 03:17:31;;;;;;;0.30;0.30;;;;;;;;;;6196819;23;20320;-80
2023/09/03 03:19:57;;;;;;;0.22;0.22;;;;;;;;;;6221426;23;20015;-80
2023/09/03 03:22:23;;;;;;;0.20;0.20;;;;;;;;;;6222278;23;20020;-80
2023/09/03 03:24:49;;;;;;;0.30;0.30;;;;;;;;;;6222836;23;20023;-80
2023/09/03 03:27:15;;;;;;;0.30;0.30;;;;;;;;;;6222578;23;20016;-80
2023/09/03 03:29:41;;;;;;;0.30;0.30;;;;;;;;;;6222902;23;20015;-80
2023/09/03 03:32:08;;;;;;;0.30;0.30;;;;;;;;;;6222347;23;20074;-80
2023/09/03 03:34:34;;;;;;;0.30;0.30;;;;;;;;;;6222420;23;20306;-80
2023/09/03 03:37:00;;;;;;;0.30;0.30;;;;;;;;;;6222499;23;20024;-80
2023/09/03 03:39:26;;;;;;;0.30;0.30;;;;;;;;;;6222841;23;20026;-80
2023/09/03 03:41:52;;;;;;;0.40;0.40;;;;;;;;;;6222905;22;20099;-84
2023/09/03 03:44:18;;;;;;;0.30;0.30;;;;;;;;;;6199994;23;20095;-83
2023/09/03 03:46:44;;;;;;;0.40;0.40;;;;;;;;;;6224299;23;20016;-84
2023/09/03 03:49:10;;;;;;;0.30;0.30;;;;;;;;;;6199130;23;20016;-83
2023/09/03 03:51:36;;;;;;;0.30;0.30;;;;;;;;;;6223336;23;20051;-83
2023/09/03 03:54:04;;;;;;;0.30;0.30;;;;;;;;;;6223344;23;20020;-84
2023/09/03 03:56:30;;;;;;;0.30;0.30;;;;;;;;;;6198730;23;20023;-84
2023/09/03 03:58:56;;;;;;;0.30;0.30;;;;;;;;;;6197780;23;20073;-83
2023/09/03 04:01:25;;;;;;;0.20;0.20;;;;;;;;;;6223166;23;20074;-84
2023/09/03 04:03:52;;;;;;;0.20;0.20;;;;;;;;;;6198334;23;20767;-83
2023/09/03 04:06:19;;;;;;;0.30;0.30;;;;;;;;;;6223567;23;20034;-83
2023/09/03 04:08:45;;;;;;;0.40;0.40;;;;;;;;;;6199706;23;20456;-84
2023/09/03 04:11:17;;;;;;;0.20;0.20;;;;;;;;;;6203755;23;20037;-82
2023/09/03 04:13:43;;;;;;;0.30;0.30;;;;;;;;;;6203532;23;20027;-83
2023/09/03 04:16:16;;;;;;;0.20;0.20;;;;;;;;;;6228570;23;20012;-84
2023/09/03 04:18:44;;;;;;;0.20;0.20;;;;;;;;;;6203838;23;20016;-84
2023/09/03 04:21:11;;;;;;;0.30;0.30;;;;;;;;;;6227298;23;20066;-82
2023/09/03 04:23:40;;;;;;;0.20;0.20;;;;;;;;;;6228014;23;20059;-84
2023/09/03 04:26:08;;;;;;;0.32;0.32;;;;;;;;;;6203833;23;20459;-84
2023/09/03 04:28:34;;;;;;;0.43;0.43;;;;;;;;;;6203096;23;20016;-82
2023/09/03 04:31:04;;;;;;;0.38;0.38;;;;;;;;;;6202922;23;20516;-83
2023/09/03 04:33:30;;;;;;;0.20;0.20;;;;;;;;;;6227470;23;20019;-83
2023/09/03 04:35:57;;;;;;;0.28;0.28;;;;;;;;;;6203079;23;20051;-83
2023/09/03 04:38:23;;;;;;;0.30;0.30;;;;;;;;;;6202744;23;20016;-83
2023/09/03 04:40:49;;;;;;;0.30;0.30;;;;;;;;;;6226898;23;20076;-83
2023/09/03 04:43:15;;;;;;;0.20;0.20;;;;;;;;;;6202081;23;20019;-84
2023/09/03 04:45:53;;;;;;;0.30;0.30;;;;;;;;;;6201671;23;20047;-84
2023/09/03 04:48:20;;;;;;;0.20;0.20;;;;;;;;;;6201665;23;20012;-84
2023/09/03 04:50:46;;;;;;;0.30;0.30;;;;;;;;;;6227501;23;20034;-84
2023/09/03 04:53:12;;;;;;;0.20;0.20;;;;;;;;;;6202496;23;20016;-83
2023/09/03 04:55:39;;;;;;;0.22;0.22;;;;;;;;;;6203404;23;20022;-84
2023/09/03 04:58:05;;;;;;;0.20;0.20;;;;;;;;;;6226052;23;20020;-84
2023/09/03 05:00:31;;;;;;;0.22;0.22;;;;;;;;;;6227846;23;20020;-84
2023/09/03 05:02:57;;;;;;;0.40;0.40;;;;;;;;;;6201892;23;20016;-83
2023/09/03 05:05:24;;;;;;;0.20;0.20;;;;;;;;;;6200624;23;20035;-85
2023/09/03 05:07:50;;;;;;;0.30;0.30;;;;;;;;;;6200532;23;20020;-83
2023/09/03 05:10:17;;;;;;;0.30;0.30;;;;;;;;;;6202321;23;20051;-82
2023/09/03 05:12:43;;;;;;;0.30;0.30;;;;;;;;;;6227055;23;20043;-85
2023/09/03 05:15:10;;;;;;;0.15;0.15;;;;;;;;;;6202626;23;20470;-83
2023/09/03 05:17:36;;;;;;;0.30;0.30;;;;;;;;;;6202361;23;20008;-83
2023/09/03 05:20:03;;;;;;;0.38;0.38;;;;;;;;;;6202119;23;20015;-84
2023/09/03 05:22:29;;;;;;;0.30;0.30;;;;;;;;;;6223755;23;20047;-83
2023/09/03 05:24:55;;;;;;;0.30;0.30;;;;;;;;;;6199966;23;20023;-84
2023/09/03 05:27:21;;;;;;;0.30;0.30;;;;;;;;;;6225777;23;20020;-83
2023/09/03 05:29:47;;;;;;;0.30;0.30;;;;;;;;;;6200523;23;20016;-83
2023/09/03 05:32:14;;;;;;;0.30;0.30;;;;;;;;;;6199714;23;20351;-85
2023/09/03 05:34:41;;;;;;;0.40;0.40;;;;;;;;;;6199367;23;20020;-84
2023/09/03 05:37:07;;;;;;;0.30;0.30;;;;;;;;;;6223832;23;20065;-83
2023/09/03 05:39:33;;;;;;;0.30;0.30;;;;;;;;;;6200092;23;20020;-84
2023/09/03 05:41:59;;;;;;;0.28;0.28;;;;;;;;;;6199812;23;20456;-83
2023/09/03 05:44:25;;;;;;;0.30;0.30;;;;;;;;;;6200438;23;20016;-84
2023/09/03 05:46:51;;;;;;;0.22;0.22;;;;;;;;;;6225591;23;20016;-82
2023/09/03 05:49:17;;;;;;;0.32;0.32;;;;;;;;;;6200552;23;20339;-83
2023/09/03 05:51:43;;;;;;;0.30;0.30;;;;;;;;;;6224718;23;20016;-83
2023/09/03 05:54:09;;;;;;;0.30;0.30;;;;;;;;;;6225322;23;20354;-82
2023/09/03 05:56:35;;;;;;;0.28;0.28;;;;;;;;;;6200225;23;20537;-82
2023/09/03 05:59:05;;;;;;;0.30;0.30;;;;;;;;;;6225578;23;20023;-83
2023/09/03 06:01:35;;;;;;;0.35;0.35;;;;;;;;;;6224540;23;20055;-82
2023/09/03 06:04:06;;;;;;;0.40;0.40;;;;;;;;;;6200181;23;20020;-83
2023/09/03 06:06:36;;;;;;;0.20;0.20;;;;;;;;;;6224451;23;20033;-82
2023/09/03 06:09:03;;;;;;;0.20;0.20;;;;;;;;;;6224878;23;20066;-83
2023/09/03 06:11:29;;;;;;;0.20;0.20;;;;;;;;;;6199450;23;20022;-82
2023/09/03 06:13:55;;;;;;;0.30;0.30;;;;;;;;;;6199641;23;20016;-83
2023/09/03 06:16:21;;;;;;;0.20;0.20;;;;;;;;;;6200143;23;20012;-84
2023/09/03 06:18:47;;;;;;;0.20;0.20;;;;;;;;;;6198396;23;20343;-83
2023/09/03 06:21:13;;;;;;;0.15;0.15;;;;;;;;;;6197762;23;20087;-83
2023/09/03 06:23:39;;;;;;;0.20;0.20;;;;;;;;;;6223236;23;20055;-84
2023/09/03 06:26:05;;;;;;;0.20;0.20;;;;;;;;;;6225299;23;20012;-84
2023/09/03 06:28:32;;;;;;;0.30;0.30;;;;;;;;;;6199737;23;20081;-84
2023/09/03 06:30:59;;;;;;;0.30;0.30;;;;;;;;;;6224962;23;20055;-84
2023/09/03 06:33:25;;;;;;;0.20;0.20;;;;;;;;;;6224662;23;20020;-84
2023/09/03 06:35:51;;;;;;;0.20;0.20;;;;;;;;;;6200601;23;20051;-84
2023/09/03 06:38:17;;;;;;;0.20;0.20;;;;;;;;;;6199923;23;20024;-83
2023/09/03 06:40:43;;;;;;;0.30;0.30;;;;;;;;;;6225835;23;20458;-84
2023/09/03 06:43:09;;;;;;;0.30;0.30;;;;;;;;;;6223555;23;20016;-84
2023/09/03 06:45:35;;;;;;;0.32;0.32;;;;;;;;;;6225960;23;20451;-84
2023/09/03 06:48:01;;;;;;;0.20;0.20;;;;;;;;;;6199887;23;20093;-84
2023/09/03 06:50:27;;;;;;;0.30;0.30;;;;;;;;;;6199153;23;20091;-84
2023/09/03 06:52:53;;;;;;;0.20;0.20;;;;;;;;;;6198664;23;20020;-84
2023/09/03 06:55:19;;;;;;;0.40;0.40;;;;;;;;;;6224107;23;20048;-84
2023/09/03 06:57:45;;;;;;;0.30;0.30;;;;;;;;;;6198230;23;20020;-85
2023/09/03 07:00:11;;;;;;;0.30;0.30;;;;;;;;;;6198021;23;20024;-84
2023/09/03 07:02:37;;;;;;;0.40;0.40;;;;;;;;;;6197976;23;20371;-84
2023/09/03 07:05:03;;;;;;;0.30;0.30;;;;;;;;;;6224440;23;20074;-84
2023/09/03 07:07:29;;;;;;;0.38;0.38;;;;;;;;;;6199258;23;20035;-84
2023/09/03 07:09:55;;;;;;;0.40;0.40;;;;;;;;;;6224466;23;20012;-85
2023/09/03 07:12:22;;;;;;;0.30;0.30;;;;;;;;;;6199078;23;20028;-84
2023/09/03 07:14:48;;;;;;;0.20;0.20;;;;;;;;;;6199470;23;20024;-84
2023/09/03 07:17:14;;;;;;;0.30;0.30;;;;;;;;;;6199374;23;20491;-84
2023/09/03 07:19:40;;;;;;;0.20;0.20;;;;;;;;;;6224509;23;20447;-84
2023/09/03 07:22:06;;;;;;;0.20;0.20;;;;;;;;;;6198453;23;20012;-84
2023/09/03 07:24:32;;;;;;;0.10;0.10;;;;;;;;;;6199823;23;20058;-83
2023/09/03 07:26:58;;;;;;;0.15;0.15;;;;;;;;;;6199964;23;20012;-84
2023/09/03 07:29:24;;;;;;;0.20;0.20;;;;;;;;;;6223804;23;20016;-83
2023/09/03 07:31:50;;;;;;;0.20;0.20;;;;;;;;;;6222835;23;20027;-84
2023/09/03 07:34:16;;;;;;;0.20;0.20;;;;;;;;;;6198911;23;20016;-82
2023/09/03 07:36:43;;;;;;;0.20;0.20;;;;;;;;;;6222384;23;20026;-83
2023/09/03 07:39:09;;;;;;;0.28;0.28;;;;;;;;;;6197191;23;20098;-83
2023/09/03 07:41:36;;;;;;;0.22;0.22;;;;;;;;;;6196810;23;20066;-84
2023/09/03 07:44:02;;;;;;;0.20;0.20;;;;;;;;;;6198488;23;20553;-84
2023/09/03 07:46:28;;;;;;;0.30;0.30;;;;;;;;;;6199767;23;20016;-83
2023/09/03 07:48:54;;;;;;;0.30;0.30;;;;;;;;;;6199513;23;20047;-83
2023/09/03 07:51:21;;;;;;;0.20;0.20;;;;;;;;;;6199200;23;20016;-83
2023/09/03 07:53:48;;;;;;;0.20;0.20;;;;;;;;;;6224481;23;20061;-84
2023/09/03 07:56:15;;;;;;;0.10;0.10;;;;;;;;;;6224183;23;20059;-83
2023/09/03 07:58:42;;;;;;;0.10;0.10;;;;;;;;;;6223953;23;20414;-84
2023/09/03 08:01:11;;;;;;;0.13;0.13;;;;;;;;;;6199053;23;20020;-84
2023/09/03 08:03:38;;;;;;;0.20;0.20;;;;;;;;;;6198386;23;20439;-84
2023/09/03 08:06:04;;;;;;;0.10;0.10;;;;;;;;;;6223558;23;20064;-83
2023/09/03 08:08:31;;;;;;;0.20;0.20;;;;;;;;;;6199490;23;20048;-84
2023/09/03 08:10:57;;;;;;;0.30;0.30;;;;;;;;;;6198529;23;20054;-83
2023/09/03 08:13:23;;;;;;;0.25;0.25;;;;;;;;;;6197151;23;20020;-83
2023/09/03 08:15:49;;;;;;;0.22;0.22;;;;;;;;;;6222264;23;20016;-83
2023/09/03 08:18:15;;;;;;;0.30;0.30;;;;;;;;;;6223417;23;20020;-82
2023/09/03 08:20:42;;;;;;;0.17;0.17;;;;;;;;;;6224938;23;20020;-84
2023/09/03 08:23:12;;;;;;;0.20;0.20;;;;;;;;;;6221527;23;20023;-83
2023/09/03 08:25:38;;;;;;;0.25;0.25;;;;;;;;;;6198088;23;20016;-83
2023/09/03 08:28:05;;;;;;;0.30;0.30;;;;;;;;;;6197357;23;20012;-84
2023/09/03 08:30:32;;;;;;;0.10;0.10;;;;;;;;;;6197602;23;20523;-84
2023/09/03 08:32:58;;;;;;;0.20;0.20;;;;;;;;;;6197246;23;20101;-83
2023/09/03 08:35:24;;;;;;;0.22;0.22;;;;;;;;;;6197603;23;20019;-83
2023/09/03 08:37:50;;;;;;;0.20;0.20;;;;;;;;;;6223138;23;20328;-84
2023/09/03 08:40:18;;;;;;;0.20;0.20;;;;;;;;;;6221896;23;20016;-84
2023/09/03 08:42:46;;;;;;;0.20;0.20;;;;;;;;;;6197335;23;20027;-84
2023/09/03 08:45:13;;;;;;;0.10;0.10;;;;;;;;;;6198457;23;20016;-84
2023/09/03 08:47:41;;;;;;;0.10;0.10;;;;;;;;;;6223350;23;20016;-85
2023/09/03 08:50:26;;;;;;;0.22;0.22;;;;;;;;;;6222545;23;20034;-84
2023/09/03 08:52:53;;;;;;;0.20;0.20;;;;;;;;;;6197410;23;20460;-85
2023/09/03 08:55:19;;;;;;;0.10;0.10;;;;;;;;;;6194160;23;20020;-84
2023/09/03 08:57:45;;;;;;;0.15;0.15;;;;;;;;;;6223567;23;20016;-84
2023/09/03 09:00:12;;;;;;;0.20;0.20;;;;;;;;;;6224890;23;20015;-84
2023/09/03 09:02:38;;;;;;;0.17;0.17;;;;;;;;;;6223319;23;20026;-85
2023/09/03 09:05:05;;;;;;;0.10;0.10;;;;;;;;;;6224264;23;20023;-84
2023/09/03 09:07:33;;;;;;;0.10;0.10;;;;;;;;;;6223454;23;20610;-84
2023/09/03 09:10:03;;;;;;;0.10;0.10;;;;;;;;;;6224132;23;20047;-84
2023/09/03 09:12:34;;;;;;;0.30;0.30;;;;;;;;;;6199520;23;20044;-83
2023/09/03 09:15:01;;;;;;;0.10;0.10;;;;;;;;;;6225186;23;20024;-84
2023/09/03 09:17:30;;;;;;;0.20;0.20;;;;;;;;;;6199305;23;20031;-85
2023/09/03 09:19:59;;;;;;;0.20;0.20;;;;;;;;;;6224420;23;20062;-84
2023/09/03 09:22:25;;;;;;;0.10;0.10;;;;;;;;;;6198266;23;20078;-84
2023/09/03 09:24:52;;;;;;;0.13;0.13;;;;;;;;;;6199043;23;20020;-84
2023/09/03 09:27:19;;;;;;;0.20;0.20;;;;;;;;;;6224272;23;20087;-84
2023/09/03 09:29:45;;;;;;;0.20;0.20;;;;;;;;;;6197934;23;20087;-83
2023/09/03 09:32:24;;;;;;;0.10;0.10;;;;;;;;;;6223544;23;20070;-84
2023/09/03 09:34:50;;;;;;;0.10;0.10;;;;;;;;;;6222926;23;20016;-85
2023/09/03 09:37:17;;;;;;;0.20;0.20;;;;;;;;;;6199011;23;20022;-85
2023/09/03 09:39:43;;;;;;;0.20;0.20;;;;;;;;;;6224394;23;20086;-83
2023/09/03 09:42:11;;;;;;;0.13;0.13;;;;;;;;;;6223551;23;20020;-84
2023/09/03 09:44:37;;;;;;;0.20;0.20;;;;;;;;;;6198761;23;20020;-84
2023/09/03 09:47:16;;;;;;;0.10;0.10;;;;;;;;;;6224379;23;20000;-84
2023/09/03 09:49:43;;;;;;;0.30;0.30;;;;;;;;;;6198052;23;20023;-85
2023/09/03 09:52:10;;;;;;;0.15;0.15;;;;;;;;;;6196771;23;20020;-85
2023/09/03 09:54:40;;;;;;;0.40;0.40;;;;;;;;;;6199172;23;20016;-84
2023/09/03 09:57:16;;;;;;;0.25;0.25;;;;;;;;;;6224383;23;20023;-84
2023/09/03 09:59:42;;;;;;;0.17;0.17;;;;;;;;;;6223258;23;20023;-85
2023/09/03 10:02:15;;;;;;;0.28;0.28;;;;;;;;;;6222605;23;20082;-85
2023/09/03 10:04:45;;;;;;;0.10;0.10;;;;;;;;;;6223676;23;20087;-85
2023/09/03 10:07:11;;;;;;;0.10;0.10;;;;;;;;;;6197595;23;20447;-85
2023/09/03 10:09:41;;;;;;;0.20;0.20;;;;;;;;;;6173450;23;20065;-84
2023/09/03 10:12:08;;;;;;;0.10;0.10;;;;;;;;;;6196991;23;20050;-84
2023/09/03 10:14:35;;;;;;;0.10;0.10;;;;;;;;;;6224485;23;20020;-83
2023/09/03 10:17:02;;;;;;;0.10;0.10;;;;;;;;;;6224213;23;20020;-84
2023/09/03 10:19:29;;;;;;;0.22;0.22;;;;;;;;;;6223626;23;20023;-85
2023/09/03 10:22:00;;;;;;;0.20;0.20;;;;;;;;;;6223196;23;20028;-85
2023/09/03 10:24:26;;;;;;;0.10;0.10;;;;;;;;;;6198988;23;20451;-85
2023/09/03 10:26:55;;;;;;;0.20;0.20;;;;;;;;;;6222903;23;20398;-84
2023/09/03 10:29:22;;;;;;;0.20;0.20;;;;;;;;;;6198235;23;20027;-84
2023/09/03 10:31:49;;;;;;;0.20;0.20;;;;;;;;;;6198071;23;20013;-85
2023/09/03 10:34:15;;;;;;;0.35;0.35;;;;;;;;;;6199150;23;20000;-84
2023/09/03 10:37:00;;;;;;;0.20;0.20;;;;;;;;;;6223714;23;20016;-85
2023/09/03 10:39:28;;;;;;;0.28;0.28;;;;;;;;;;6223577;23;20023;-84
2023/09/03 10:42:14;;;;;;;0.20;0.20;;;;;;;;;;6198669;23;20020;-86
2023/09/03 10:44:44;;;;;;;0.30;0.30;;;;;;;;;;6199364;23;20039;-86
2023/09/03 10:47:13;;;;;;;0.25;0.25;;;;;;;;;;6198974;23;20006;-86
2023/09/03 10:49:49;;;;;;;0.10;0.10;;;;;;;;;;6199726;23;20059;-85
2023/09/03 10:52:37;;;;;;;0.20;0.20;;;;;;;;;;6199160;23;20020;-86
2023/09/03 10:55:13;;;;;;;0.10;0.10;;;;;;;;;;6199481;23;20004;-86
2023/09/03 10:57:39;;;;;;;0.10;0.10;;;;;;;;;;6199603;23;20020;-87
2023/09/03 11:00:05;;;;;;;0.10;0.10;;;;;;;;;;6200341;23;20343;-86
2023/09/03 11:02:32;;;;;;;0.10;0.10;;;;;;;;;;6222188;23;20095;-87
2023/09/03 11:05:15;;;;;;;0.20;0.20;;;;;;;;;;6222841;23;20043;-86
2023/09/03 11:07:45;;;;;;;1.27;0.57;;;;;;;;;;6197426;23;20008;-87
2023/09/03 11:10:20;;;;;;;0.10;0.10;;;;;;;;;;6197048;23;20091;-86
2023/09/03 11:12:49;;;;;;;0.17;0.17;;;;;;;;;;6197080;23;20026;-86
2023/09/03 11:15:16;;;;;;;0.25;0.25;;;;;;;;;;6198921;23;20035;-87
2023/09/03 11:17:42;;;;;;;0.00;0.00;;;;;;;;;;6198776;23;20020;-86
2023/09/03 11:20:10;;;;;;;0.10;0.10;;;;;;;;;;6199014;23;20016;-86
2023/09/03 11:22:37;;;;;;;0.00;0.00;;;;;;;;;;6198466;23;20040;-86
2023/09/03 11:25:04;;;;;;;0.10;0.10;;;;;;;;;;6199363;23;20012;-87
2023/09/03 11:27:30;;;;;;;0.15;0.15;;;;;;;;;;6199140;23;20009;-86
2023/09/03 11:30:06;;;;;;;0.10;0.10;;;;;;;;;;6199208;23;20016;-87
2023/09/03 11:32:36;;;;;;;0.10;0.10;;;;;;;;;;6199166;23;20537;-87
2023/09/03 11:35:02;;;;;;;0.10;0.10;;;;;;;;;;6199331;23;20038;-87
2023/09/03 11:37:28;;;;;;;0.08;0.08;;;;;;;;;;6199263;23;20016;-86
2023/09/03 11:39:54;;;;;;;0.10;0.10;;;;;;;;;;6199017;23;20455;-87
2023/09/03 11:42:20;;;;;;;0.05;0.05;;;;;;;;;;6197636;23;20103;-86
2023/09/03 11:44:50;;;;;;;0.25;0.25;;;;;;;;;;6199432;23;20023;-86
2023/09/03 11:47:17;;;;;;;0.17;0.17;;;;;;;;;;6198929;23;20020;-86
2023/09/03 11:49:47;;;;;;;0.20;0.20;;;;;;;;;;6199055;23;20016;-86
2023/09/03 11:52:14;;;;;;;0.28;0.28;;;;;;;;;;6198143;23;20035;-87
2023/09/03 11:54:41;;;;;;;0.10;0.10;;;;;;;;;;6198851;23;20020;-87
2023/09/03 11:57:09;;;;;;;0.10;0.10;;;;;;;;;;6199010;23;20026;-87
2023/09/03 11:59:35;;;;;;;0.20;0.20;;;;;;;;;;6197057;23;20345;-87
2023/09/03 12:02:06;;;;;;;0.10;0.10;;;;;;;;;;6196910;23;20024;-87
2023/09/03 12:04:33;;;;;;;0.20;0.20;;;;;;;;;;6197434;23;20023;-87
2023/09/03 12:06:59;;;;;;;0.28;0.28;;;;;;;;;;6197103;23;20008;-88
2023/09/03 12:09:28;;;;;;;0.10;0.10;;;;;;;;;;6198554;23;20059;-87
2023/09/03 12:11:54;;;;;;;0.10;0.10;;;;;;;;;;6198197;23;20023;-86
2023/09/03 12:14:30;;;;;;;0.00;0.00;;;;;;;;;;6198043;23;20099;-87
2023/09/03 12:16:56;;;;;;;0.10;0.10;;;;;;;;;;6198615;23;20035;-86
2023/09/03 12:19:37;;;;;;;0.20;0.20;;;;;;;;;;6198173;23;20488;-87
2023/09/03 12:22:03;;;;;;;0.10;0.10;;;;;;;;;;6197242;23;20020;-87
2023/09/03 12:24:29;;;;;;;0.08;0.08;;;;;;;;;;6198942;23;20099;-87
2023/09/03 12:27:03;;;;;;;0.20;0.20;;;;;;;;;;6198264;23;20012;-87
2023/09/03 12:29:33;;;;;;;0.10;0.10;;;;;;;;;;6199027;23;20095;-87
2023/09/03 12:31:58;;;;;;;0.10;0.10;;;;;;;;;;6201137;23;20351;-87
2023/09/03 12:34:35;;;;;;;0.20;0.20;;;;;;;;;;6225190;23;20016;-87
2023/09/03 12:37:01;;;;;;;0.15;0.15;;;;;;;;;;6198910;23;20023;-88
2023/09/03 12:39:35;;;;;;;0.10;0.10;;;;;;;;;;6199627;23;20068;-87
2023/09/03 12:42:02;;;;;;;0.00;0.00;;;;;;;;;;6200708;23;20095;-94
2023/09/03 12:44:28;;;;;;;0.15;0.15;;;;;;;;;;6203861;23;20073;-93
2023/09/03 12:46:54;;;;;;;0.20;0.20;;;;;;;;;;6203293;23;20000;-93
2023/09/03 12:49:21;;;;;;;0.00;0.00;;;;;;;;;;6228074;23;20066;-93
2023/09/03 12:51:47;;;;;;;0.15;0.15;;;;;;;;;;6202158;23;20020;-92
2023/09/03 12:54:14;;;;;;;0.10;0.10;;;;;;;;;;6201462;23;20048;-91
2023/09/03 12:56:49;;;;;;;0.20;0.20;;;;;;;;;;6202820;23;20329;-94
2023/09/03 12:59:15;;;;;;;;;;;;;;;;;;6203088;23;20024;-94
2023/09/03 13:01:47;;;;;;;0.30;0.30;;;;;;;;;;6202369;23;19922;-93
2023/09/03 13:04:19;;;;;;;0.30;0.30;;;;;;;;;;6203807;23;20357;-93
2023/09/03 13:06:45;;;;;;;0.20;0.20;;;;;;;;;;6204078;23;20020;-93
2023/09/03 13:09:11;;;;;;;0.13;0.13;;;;;;;;;;6204338;23;20034;-95
2023/09/03 13:11:37;;;;;;;0.20;0.20;;;;;;;;;;6228328;23;20016;-93
2023/09/03 13:14:03;;;;;;;0.10;0.10;;;;;;;;;;6203588;23;20086;-93
2023/09/03 13:16:30;;;;;;;0.10;0.10;;;;;;;;;;6229326;22;20459;-94
2023/09/03 13:18:57;;;;;;;0.10;0.10;;;;;;;;;;6203781;23;20266;-95
2023/09/03 13:21:23;;;;;;;0.10;0.10;;;;;;;;;;6203056;23;20451;-96
2023/09/03 13:23:50;;;;;;;0.10;0.10;;;;;;;;;;6202232;23;20078;-92
2023/09/03 13:26:16;;;;;;;0.10;0.10;;;;;;;;;;6228914;23;20072;-94
2023/09/03 13:28:42;;;;;;;0.10;0.10;;;;;;;;;;6203970;23;20016;-95
2023/09/03 13:31:08;;;;;;;0.05;0.05;;;;;;;;;;6204035;23;20023;-94
2023/09/03 13:33:35;;;;;;;0.10;0.10;;;;;;;;;;6203889;23;20071;-95
2023/09/03 13:36:06;;;;;;;0.22;0.22;;;;;;;;;;6228216;23;20020;-92
2023/09/03 13:38:32;;;;;;;0.05;0.05;;;;;;;;;;6202515;23;20020;-93
2023/09/03 13:40:59;;;;;;;0.28;0.28;;;;;;;;;;6227453;23;20020;-93
2023/09/03 13:43:25;;;;;;;0.17;0.17;;;;;;;;;;6201887;23;20051;-95
2023/09/03 13:45:52;;;;;;;0.00;0.00;;;;;;;;;;6201773;23;20403;-90
2023/09/03 13:48:18;;;;;;;0.32;0.32;;;;;;;;;;6226539;23;20016;-90
2023/09/03 13:50:44;;;;;;;0.10;0.10;;;;;;;;;;6202201;23;20016;-91
2023/09/03 13:53:10;;;;;;;0.20;0.20;;;;;;;;;;6200760;23;20020;-90
2023/09/03 13:55:36;;;;;;;0.10;0.10;;;;;;;;;;6201186;23;20023;-92
2023/09/03 13:58:02;;;;;;;0.08;0.08;;;;;;;;;;6200843;23;20028;-90
2023/09/03 14:00:28;;;;;;;0.10;0.10;;;;;;;;;;6201662;23;20016;-91
2023/09/03 14:02:54;;;;;;;0.20;0.20;;;;;;;;;;6200897;23;20016;-90
2023/09/03 14:05:20;;;;;;;0.03;0.03;;;;;;;;;;6201085;23;20526;-90
2023/09/03 14:07:47;;;;;;;0.15;0.15;;;;;;;;;;6201040;23;20017;-91
2023/09/03 14:10:21;;;;;;;0.10;0.10;;;;;;;;;;6201465;23;20039;-91
2023/09/03 14:12:47;;;;;;;0.10;0.10;;;;;;;;;;6201160;23;20043;-92
2023/09/03 14:15:13;;;;;;;0.03;0.03;;;;;;;;;;6227038;23;20027;-91
2023/09/03 14:17:40;;;;;;;0.00;0.00;;;;;;;;;;6225858;23;20020;-90
2023/09/03 14:20:14;;;;;;;0.20;0.20;;;;;;;;;;6200724;23;20027;-90
2023/09/03 14:22:42;;;;;;;0.15;0.15;;;;;;;;;;6200745;23;20026;-90
2023/09/03 14:25:08;;;;;;;0.20;0.20;;;;;;;;;;6199812;23;20019;-90
2023/09/03 14:27:42;;;;;;;0.10;0.10;;;;;;;;;;6201148;23;20016;-90
2023/09/03 14:30:08;;;;;;;0.00;0.00;;;;;;;;;;6200970;23;20023;-91
2023/09/03 14:32:34;;;;;;;0.08;0.08;;;;;;;;;;6224822;23;20027;-92
2023/09/03 14:35:13;;;;;;;0.10;0.10;;;;;;;;;;6200706;23;20016;-91
2023/09/03 14:37:39;;;;;;;0.00;0.00;;;;;;;;;;6226080;23;20023;-92
2023/09/03 14:40:05;;;;;;;0.00;0.00;;;;;;;;;;6201329;23;20016;-91
2023/09/03 14:42:31;;;;;;;0.10;0.10;;;;;;;;;;6201186;23;20359;-92
2023/09/03 14:44:57;;;;;;;0.10;0.10;;;;;;;;;;6201838;23;20448;-90